Accueil
METAR-TAF:

METAR-TAF

Aéroports :

Aéroport du Gloucestershire

Gloucester, Angleterre

latitude: 51-54N, longitude: 002-10W, altitude: 29 m

Observation

Le bulletin a été fait il y a 10 heures et 44 minutes, à 17:20 UTC
Vent calme
Température 15°C
Humidité 51%
Pression 1007 hPa
Visibilité 10 km ou plus
Quelques nuages à une hauteur de 3800 ft
averses à proximité

METAR: EGBJ 121720Z 00000KT 9999 VCSH FEW038 15/05 Q1007

Heure: 05:04 (04:04 UTC)

Prévision

Le bulletin a été fait il y a 14 heures et 8 minutes, à 13:56 UTC
Prévision valable du 12 à 15 UTC au 12 à 19 UTC
Vent 3 kt de sud-ouest
Visibilité 10 km ou plus
Nuages épars à une hauteur de 3000 ft
Probabilité 30% :
Temporairement
du 12 à 15 UTC au 12 à 19 UTC
Visibilité: 7000 m
averses de pluie

TAF: EGBJ 121356Z 1215/1219 22003KT 9999 SCT030 PROB30 TEMPO 1215/1219 7000 SHRA

Observations et prévisions météorologiques de plus de 4000 aéroports (messages METAR et TAF).

Les stations disponibles sont représentées par des disques jaunes et rouges sur la carte.

Passer la souris dessus pour voir le nom de la station.

Cliquer dessus pour voir les observations et prévisions météorologiques.

Pour changer de carte: cliquez sur les boutons verts avec une croix noire pour zoomer, sur le bouton vert avec un tiret pour effectuer un zoom arrière, ou sur les flèches vertes pour les cartes adjacentes.


METAR-TAF: